createdAt,value
2018-07-17T00:03:47.199Z,100683.00
2018-07-17T00:09:51.186Z,100689.00
2018-07-17T00:15:55.618Z,100687.00
2018-07-17T00:21:59.285Z,100675.00
2018-07-17T00:28:03.117Z,100678.00
2018-07-17T00:34:07.155Z,100694.00
2018-07-17T00:40:11.157Z,100683.00
2018-07-17T00:46:14.840Z,100680.00
2018-07-17T00:52:18.601Z,100692.00
2018-07-17T00:58:22.278Z,100689.00
2018-07-17T01:04:31.119Z,100686.00
2018-07-17T01:10:40.510Z,100682.00
2018-07-17T01:16:44.311Z,100683.00
2018-07-17T01:22:47.838Z,100666.00
2018-07-17T01:28:51.563Z,100664.00
2018-07-17T01:34:55.206Z,100661.00
2018-07-17T01:40:59.320Z,100661.00
2018-07-17T01:47:03.073Z,100656.00
2018-07-17T01:53:06.705Z,100650.00
2018-07-17T01:59:10.336Z,100647.00
2018-07-17T02:05:13.909Z,100656.00
2018-07-17T02:11:17.763Z,100660.00
2018-07-17T02:17:21.598Z,100652.00
2018-07-17T02:23:25.080Z,100654.00
2018-07-17T02:29:28.847Z,100655.00
2018-07-17T02:35:32.459Z,100657.00
2018-07-17T02:41:37.267Z,100650.00
2018-07-17T02:47:40.890Z,100643.00
2018-07-17T02:53:44.590Z,100638.00
2018-07-17T02:59:48.114Z,100638.00
2018-07-17T03:05:51.859Z,100630.00
2018-07-17T03:11:55.488Z,100634.00
2018-07-17T03:17:59.083Z,100649.00
2018-07-17T03:24:03.199Z,100656.00
2018-07-17T03:30:06.851Z,100652.00
2018-07-17T03:36:10.517Z,100649.00
2018-07-17T03:42:14.578Z,100659.00
2018-07-17T03:48:18.000Z,100667.00
2018-07-17T03:54:21.812Z,100675.00
2018-07-17T04:00:25.475Z,100682.00
2018-07-17T04:06:29.494Z,100695.00
2018-07-17T04:12:33.664Z,100687.00
2018-07-17T04:18:38.315Z,100702.00
2018-07-17T04:24:41.789Z,100699.00
2018-07-17T04:30:45.244Z,100701.00
2018-07-17T04:36:48.925Z,100689.00
2018-07-17T04:42:52.392Z,100697.00
2018-07-17T04:48:56.205Z,100716.00
2018-07-17T04:54:59.685Z,100729.00
2018-07-17T05:01:03.295Z,100737.00
2018-07-17T05:07:06.799Z,100741.00
2018-07-17T05:13:10.278Z,100749.00
2018-07-17T05:19:13.761Z,100739.00
2018-07-17T05:25:17.274Z,100750.00
2018-07-17T05:31:20.843Z,100744.00
2018-07-17T05:37:25.789Z,100743.00
2018-07-17T05:43:30.012Z,100753.00
2018-07-17T05:49:35.087Z,100745.00
2018-07-17T05:55:39.216Z,100752.00
2018-07-17T06:01:42.705Z,100751.00
2018-07-17T06:07:45.994Z,100754.00
2018-07-17T06:13:49.586Z,100759.00
2018-07-17T06:19:53.434Z,100762.00
2018-07-17T06:25:57.350Z,100762.00
2018-07-17T06:32:01.350Z,100765.00
2018-07-17T06:38:05.791Z,100778.00
2018-07-17T06:44:09.146Z,100772.00
2018-07-17T06:50:13.502Z,100777.00
2018-07-17T06:56:17.330Z,100779.00
2018-07-17T07:02:21.284Z,100776.00
2018-07-17T07:08:25.453Z,100782.00
2018-07-17T07:14:29.122Z,100789.00
2018-07-17T07:20:32.659Z,100790.00
2018-07-17T07:26:36.136Z,100790.00
2018-07-17T07:32:39.828Z,100790.00
2018-07-17T07:38:43.565Z,100796.00
2018-07-17T07:44:47.277Z,100808.00
2018-07-17T07:50:50.774Z,100814.00
2018-07-17T07:56:54.320Z,100807.00
2018-07-17T08:02:57.656Z,100814.00
2018-07-17T08:09:01.045Z,100819.00
2018-07-17T08:15:04.881Z,100820.00
2018-07-17T08:21:08.613Z,100824.00
2018-07-17T08:27:12.225Z,100821.00
2018-07-17T08:33:16.282Z,100819.00
2018-07-17T08:39:20.307Z,100816.00
2018-07-17T08:45:24.614Z,100778.00
2018-07-17T08:51:28.335Z,100823.00
2018-07-17T08:57:32.715Z,100833.00
2018-07-17T09:03:36.393Z,100838.00
2018-07-17T09:09:40.078Z,100832.00
2018-07-17T09:15:44.527Z,100831.00
2018-07-17T09:21:48.154Z,100830.00
2018-07-17T09:27:51.828Z,100843.00
2018-07-17T09:33:55.442Z,100844.00
2018-07-17T09:39:59.131Z,100846.00
2018-07-17T09:46:02.658Z,100850.00
2018-07-17T09:52:07.226Z,100851.00
2018-07-17T09:58:11.747Z,100829.00
2018-07-17T10:04:15.454Z,100812.00
2018-07-17T10:10:19.525Z,100847.00
2018-07-17T10:16:23.353Z,100854.00
2018-07-17T10:22:26.727Z,100848.00
2018-07-17T10:28:31.078Z,100858.00
2018-07-17T10:34:34.633Z,100850.00
2018-07-17T10:40:37.983Z,100869.00
2018-07-17T10:46:42.104Z,100869.00
2018-07-17T10:52:45.705Z,100864.00
2018-07-17T10:58:49.809Z,100858.00
2018-07-17T11:04:53.296Z,100851.00
2018-07-17T11:10:56.676Z,100843.00
2018-07-17T11:17:01.424Z,100846.00
2018-07-17T11:23:05.724Z,100839.00
2018-07-17T11:29:09.300Z,100831.00
2018-07-17T11:35:13.565Z,100825.00
2018-07-17T11:41:17.320Z,100822.00
2018-07-17T11:47:24.114Z,100822.00
2018-07-17T11:53:27.753Z,100828.00
2018-07-17T11:59:31.403Z,100828.00
2018-07-17T12:05:34.939Z,100838.00
2018-07-17T12:11:39.279Z,100830.00
2018-07-17T12:17:43.007Z,100836.00
2018-07-17T12:23:46.825Z,100817.00
2018-07-17T12:29:54.202Z,100837.00
2018-07-17T12:35:57.972Z,100824.00
2018-07-17T12:42:01.544Z,100826.00
2018-07-17T12:48:06.753Z,100824.00
2018-07-17T12:54:10.334Z,100814.00
2018-07-17T13:00:14.029Z,100817.00
2018-07-17T13:06:17.492Z,100820.00
2018-07-17T13:12:21.060Z,100813.00
2018-07-17T13:18:24.857Z,100818.00
2018-07-17T13:24:28.344Z,100804.00
2018-07-17T13:30:32.131Z,100812.00
2018-07-17T13:36:36.299Z,100812.00
2018-07-17T13:42:40.290Z,100811.00
2018-07-17T13:48:46.058Z,100806.00
2018-07-17T13:54:49.441Z,100813.00
2018-07-17T14:00:53.318Z,100803.00
2018-07-17T14:06:56.707Z,100804.00
2018-07-17T14:13:00.091Z,100811.00
2018-07-17T14:19:03.519Z,100803.00
2018-07-17T14:25:07.085Z,100808.00
2018-07-17T14:31:10.788Z,100806.00
2018-07-17T14:37:14.352Z,100702.00
2018-07-17T14:43:19.400Z,100799.00
2018-07-17T14:49:22.717Z,100813.00
2018-07-17T14:55:26.445Z,100795.00
2018-07-17T15:01:31.392Z,100812.00
2018-07-17T15:07:34.869Z,100800.00
2018-07-17T15:13:38.342Z,100803.00
2018-07-17T15:19:43.615Z,100811.00
2018-07-17T15:25:47.332Z,100806.00
2018-07-17T15:31:51.319Z,100811.00
2018-07-17T15:37:54.782Z,100816.00
2018-07-17T15:43:58.342Z,100816.00
2018-07-17T15:50:01.915Z,100812.00
2018-07-17T15:56:06.061Z,100818.00
2018-07-17T16:02:10.199Z,100820.00
2018-07-17T16:08:13.651Z,100825.00
2018-07-17T16:14:17.485Z,100820.00
2018-07-17T16:20:21.634Z,100824.00
2018-07-17T16:26:25.372Z,100815.00
2018-07-17T16:32:29.127Z,100806.00
2018-07-17T16:38:32.937Z,100809.00
2018-07-17T16:44:36.372Z,100819.00
2018-07-17T16:50:40.189Z,100819.00
2018-07-17T16:56:43.809Z,100815.00
2018-07-17T17:02:47.805Z,100822.00
2018-07-17T17:08:51.378Z,100827.00
2018-07-17T17:14:55.603Z,100828.00
2018-07-17T17:21:00.123Z,100838.00
2018-07-17T17:27:05.737Z,100838.00
2018-07-17T17:33:10.902Z,100831.00
2018-07-17T17:39:14.807Z,100826.00
2018-07-17T17:45:18.243Z,100837.00
2018-07-17T17:51:21.980Z,100833.00
2018-07-17T17:57:28.570Z,100843.00
2018-07-17T18:03:32.156Z,100853.00
2018-07-17T18:09:36.218Z,100870.00
2018-07-17T18:15:39.983Z,100888.00
2018-07-17T18:21:44.631Z,100897.00
2018-07-17T18:27:48.034Z,100908.00
2018-07-17T18:33:51.573Z,100928.00
2018-07-17T18:39:55.193Z,100933.00
2018-07-17T18:46:00.910Z,100955.00
2018-07-17T18:52:04.456Z,100970.00
2018-07-17T18:58:07.779Z,100969.00
2018-07-17T19:04:11.381Z,100986.00
2018-07-17T19:10:15.164Z,100991.00
2018-07-17T19:16:18.574Z,101008.00
2018-07-17T19:22:23.335Z,101018.00
2018-07-17T19:28:26.740Z,101016.00
2018-07-17T19:34:30.494Z,101017.00
2018-07-17T19:40:33.987Z,101037.00
2018-07-17T19:46:37.431Z,101042.00
2018-07-17T19:52:40.954Z,101061.00
2018-07-17T19:58:44.479Z,101060.00
2018-07-17T20:04:48.684Z,101071.00
2018-07-17T20:10:52.178Z,101067.00
2018-07-17T20:16:55.684Z,101074.00
2018-07-17T20:22:59.333Z,101086.00
2018-07-17T20:29:02.773Z,101080.00
2018-07-17T20:35:10.380Z,101104.00
2018-07-17T20:41:14.032Z,101100.00
2018-07-17T20:47:18.504Z,101109.00
2018-07-17T20:53:22.324Z,101112.00
2018-07-17T20:59:26.663Z,101113.00
2018-07-17T21:05:30.164Z,101124.00
2018-07-17T21:11:33.509Z,101126.00
2018-07-17T21:17:37.572Z,101137.00
2018-07-17T21:23:41.968Z,101137.00
2018-07-17T21:29:45.640Z,101140.00
2018-07-17T21:35:50.068Z,101151.00
2018-07-17T21:41:53.498Z,101154.00
2018-07-17T21:47:57.210Z,101157.00
2018-07-17T21:54:00.730Z,101153.00
2018-07-17T22:00:06.987Z,101164.00
2018-07-17T22:06:11.184Z,101169.00
2018-07-17T22:12:14.529Z,101179.00
2018-07-17T22:18:18.042Z,101181.00
2018-07-17T22:24:28.283Z,101183.00
2018-07-17T22:30:31.582Z,101183.00
2018-07-17T22:36:35.022Z,101185.00
2018-07-17T22:42:38.645Z,101178.00
2018-07-17T22:48:43.296Z,101194.00
2018-07-17T22:54:47.011Z,101184.00
2018-07-17T23:00:50.369Z,101186.00
2018-07-17T23:06:54.152Z,101191.00
2018-07-17T23:12:58.111Z,101201.00
2018-07-17T23:19:01.810Z,101201.00
2018-07-17T23:25:05.324Z,101198.00
2018-07-17T23:31:09.999Z,101199.00
2018-07-17T23:37:13.566Z,101193.00
2018-07-17T23:43:17.476Z,101201.00
2018-07-17T23:49:26.715Z,101195.00
2018-07-17T23:55:30.060Z,101199.00
